Time;durP1;ratioP1;P1;durP2;ratioP2;P2;SDS_P1;SDS_P2;PMS_P1;PMS_P2;Temp;Humidity;BMP_temperature;BMP_pressure;BME280_temperature;BME280_humidity;BME280_pressure;Samples;Min_cycle;Max_cycle;Signal;HPM_P1;HPM_P2
2022/02/24 00:01:56;;;;;;;6.72;1.67;;;6.30;75.50;;;;;;5075270;28;20387;-82
2022/02/24 00:04:22;;;;;;;8.85;2.15;;;6.30;75.80;;;;;;5068120;28;20098;-82
2022/02/24 00:06:47;;;;;;;5.88;1.85;;;6.30;75.60;;;;;;5056723;28;20044;-82
2022/02/24 00:09:13;;;;;;;5.15;2.15;;;6.30;76.10;;;;;;5065750;28;20107;-82
2022/02/24 00:11:39;;;;;;;5.85;1.95;;;6.20;76.10;;;;;;5068025;28;20404;-82
2022/02/24 00:14:04;;;;;;;5.40;1.63;;;6.20;76.10;;;;;;5067647;28;20527;-83
2022/02/24 00:16:30;;;;;;;5.70;1.67;;;6.10;76.60;;;;;;5071407;28;20025;-82
2022/02/24 00:18:55;;;;;;;12.60;2.00;;;6.20;76.40;;;;;;5070939;28;20395;-82
2022/02/24 00:21:21;;;;;;;7.63;2.05;;;6.20;76.30;;;;;;5070435;28;20036;-82
2022/02/24 00:23:47;;;;;;;6.20;2.00;;;6.20;76.20;;;;;;5065063;28;20378;-82
2022/02/24 00:26:13;;;;;;;5.95;1.67;;;6.20;76.10;;;;;;5064795;28;20121;-82
2022/02/24 00:28:39;;;;;;;8.90;1.90;;;6.20;76.20;;;;;;5070865;28;20478;-82
2022/02/24 00:31:04;;;;;;;7.50;2.03;;;6.20;75.80;;;;;;5068248;28;20044;-82
2022/02/24 00:33:30;;;;;;;7.68;1.73;;;6.20;76.00;;;;;;5069422;28;20135;-82
2022/02/24 00:35:55;;;;;;;6.80;2.40;;;6.20;75.90;;;;;;5070506;28;20032;-82
2022/02/24 00:38:21;;;;;;;7.60;1.67;;;6.20;76.00;;;;;;5067189;28;20032;-82
2022/02/24 00:40:47;;;;;;;7.45;1.70;;;6.20;75.70;;;;;;5063061;28;20029;-82
2022/02/24 00:43:12;;;;;;;8.70;1.63;;;6.20;76.20;;;;;;5064775;28;20484;-82
2022/02/24 00:45:38;;;;;;;5.72;2.13;;;6.30;75.40;;;;;;5067674;28;20146;-83
2022/02/24 00:48:04;;;;;;;7.50;1.80;;;6.20;75.70;;;;;;5086428;28;20104;-82
2022/02/24 00:50:30;;;;;;;10.93;1.98;;;6.20;75.80;;;;;;5067389;28;20028;-82
2022/02/24 00:52:56;;;;;;;5.28;1.80;;;6.20;76.20;;;;;;5057251;28;20032;-82
2022/02/24 00:55:25;;;;;;;7.45;1.92;;;6.30;75.40;;;;;;5071989;28;20023;-82
2022/02/24 00:57:51;;;;;;;7.47;1.88;;;6.20;75.80;;;;;;5074512;28;20081;-82
2022/02/24 01:00:16;;;;;;;8.45;2.20;;;6.20;76.20;;;;;;5065744;28;20033;-82
2022/02/24 01:02:42;;;;;;;12.32;2.17;;;6.10;76.20;;;;;;5079016;28;20472;-85
2022/02/24 01:05:08;;;;;;;6.50;1.65;;;6.10;76.30;;;;;;5065949;28;20412;-83
2022/02/24 01:07:33;;;;;;;5.13;1.80;;;6.10;76.40;;;;;;5070700;28;20021;-83
2022/02/24 01:09:59;;;;;;;6.40;1.67;;;6.10;76.80;;;;;;5069224;28;20040;-82
2022/02/24 01:12:24;;;;;;;7.47;1.60;;;6.10;76.60;;;;;;5069194;28;20032;-82
2022/02/24 01:14:50;;;;;;;5.60;1.88;;;6.10;77.00;;;;;;5066665;28;20025;-84
2022/02/24 01:17:16;;;;;;;8.63;2.03;;;6.00;77.00;;;;;;5056197;28;20056;-82
2022/02/24 01:19:41;;;;;;;7.88;1.98;;;6.00;77.00;;;;;;5066974;28;20459;-82
2022/02/24 01:22:07;;;;;;;9.95;2.30;;;6.00;76.60;;;;;;5085562;28;20579;-82
2022/02/24 01:24:32;;;;;;;7.97;2.03;;;6.00;76.90;;;;;;5065301;28;20063;-82
2022/02/24 01:26:58;;;;;;;6.97;1.83;;;5.80;77.40;;;;;;5049258;28;20381;-83
2022/02/24 01:29:23;;;;;;;6.28;1.63;;;5.80;77.10;;;;;;5064994;28;20485;-82
2022/02/24 01:31:49;;;;;;;5.55;1.80;;;5.80;77.30;;;;;;5068694;28;20055;-83
2022/02/24 01:34:17;;;;;;;5.03;1.50;;;5.70;77.70;;;;;;5056122;28;20024;-85
2022/02/24 01:36:42;;;;;;;6.72;1.90;;;5.70;77.90;;;;;;5068640;28;20028;-85
2022/02/24 01:39:07;;;;;;;8.77;1.92;;;5.60;78.10;;;;;;5067214;28;20021;-82
2022/02/24 01:41:33;;;;;;;4.55;1.63;;;5.60;77.90;;;;;;5069225;28;20016;-82
2022/02/24 01:44:08;;;;;;;5.80;1.60;;;5.60;78.50;;;;;;5070385;28;20393;-82
2022/02/24 01:46:34;;;;;;;6.15;2.08;;;5.60;78.30;;;;;;5065765;28;20116;-82
2022/02/24 01:48:59;;;;;;;6.68;2.00;;;5.70;78.00;;;;;;5070094;28;20036;-82
2022/02/24 01:51:25;;;;;;;6.07;1.75;;;5.70;78.00;;;;;;5062525;28;20074;-82
2022/02/24 01:53:50;;;;;;;9.48;1.88;;;5.70;78.40;;;;;;5070132;28;20081;-82
2022/02/24 01:56:16;;;;;;;8.20;1.90;;;5.70;78.60;;;;;;5065870;28;20076;-82
2022/02/24 01:58:42;;;;;;;8.25;1.95;;;5.70;78.50;;;;;;5068509;28;20424;-82
2022/02/24 02:01:08;;;;;;;9.27;2.03;;;5.70;78.00;;;;;;5067471;28;20055;-82
2022/02/24 02:03:33;;;;;;;11.63;1.75;;;5.80;78.00;;;;;;5068042;28;20109;-82
2022/02/24 02:05:59;;;;;;;6.22;1.80;;;5.80;78.00;;;;;;5062473;28;20087;-82
2022/02/24 02:08:24;;;;;;;7.35;1.90;;;5.80;77.90;;;;;;5065959;28;20032;-82
2022/02/24 02:10:50;;;;;;;6.88;1.85;;;5.80;78.00;;;;;;5058883;28;20436;-82
2022/02/24 02:13:15;;;;;;;9.52;2.25;;;5.80;78.20;;;;;;5081270;28;20472;-82
2022/02/24 02:15:41;;;;;;;5.78;1.50;;;5.80;77.90;;;;;;5065614;28;20161;-82
2022/02/24 02:18:06;;;;;;;11.15;2.13;;;5.80;78.00;;;;;;5081896;28;20024;-82
2022/02/24 02:20:36;;;;;;;7.38;1.52;;;5.80;78.50;;;;;;5073266;28;20043;-82
2022/02/24 02:23:02;;;;;;;6.75;2.20;;;5.80;78.20;;;;;;5070830;28;20123;-82
2022/02/24 02:25:28;;;;;;;7.28;1.85;;;5.80;78.30;;;;;;5069020;28;20203;-82
2022/02/24 02:27:53;;;;;;;10.38;2.15;;;5.80;78.40;;;;;;5072466;28;20024;-82
2022/02/24 02:30:20;;;;;;;8.82;2.08;;;5.80;78.10;;;;;;5071438;28;20028;-82
2022/02/24 02:32:46;;;;;;;5.90;1.58;;;5.80;78.30;;;;;;5075413;28;20024;-82
2022/02/24 02:35:11;;;;;;;7.30;2.05;;;6.00;77.60;;;;;;5066629;28;20021;-82
2022/02/24 02:37:37;;;;;;;6.90;2.00;;;6.00;77.60;;;;;;5073695;28;20025;-82
2022/02/24 02:40:05;;;;;;;10.27;2.15;;;6.00;77.50;;;;;;5071072;28;20764;-82
2022/02/24 02:42:30;;;;;;;5.13;1.85;;;6.10;77.70;;;;;;5061126;28;20029;-82
2022/02/24 02:44:56;;;;;;;7.25;2.33;;;6.20;76.50;;;;;;5068363;28;20036;-82
2022/02/24 02:47:21;;;;;;;8.77;2.25;;;6.30;76.20;;;;;;5070176;28;20029;-82
2022/02/24 02:49:47;;;;;;;8.93;2.08;;;6.30;76.40;;;;;;5069867;28;20029;-82
2022/02/24 02:52:12;;;;;;;4.68;1.85;;;6.40;75.80;;;;;;5058184;28;20032;-82
2022/02/24 02:54:38;;;;;;;11.40;2.53;;;6.30;76.30;;;;;;5066307;28;20051;-82
2022/02/24 02:57:04;;;;;;;5.95;1.90;;;6.30;76.30;;;;;;5059154;28;20025;-82
2022/02/24 02:59:30;;;;;;;6.78;1.88;;;6.40;76.40;;;;;;5071285;28;20406;-82
2022/02/24 03:01:55;;;;;;;6.03;1.92;;;6.30;76.60;;;;;;5069611;28;20031;-82
2022/02/24 03:04:22;;;;;;;7.55;2.22;;;6.40;76.40;;;;;;5069603;28;20048;-82
2022/02/24 03:06:47;;;;;;;8.35;2.13;;;6.40;76.40;;;;;;5057668;28;20025;-83
2022/02/24 03:09:13;;;;;;;6.45;2.00;;;6.40;76.60;;;;;;5081913;28;20029;-83
2022/02/24 03:11:39;;;;;;;11.15;2.15;;;6.30;76.50;;;;;;5071553;28;20051;-82
2022/02/24 03:14:05;;;;;;;5.50;1.83;;;6.30;76.60;;;;;;5060584;28;20055;-82
2022/02/24 03:16:30;;;;;;;4.10;2.00;;;6.40;76.20;;;;;;5079523;28;20089;-82
2022/02/24 03:18:56;;;;;;;10.60;2.58;;;6.40;76.10;;;;;;5070121;28;20669;-82
2022/02/24 03:21:21;;;;;;;9.50;2.50;;;6.40;76.20;;;;;;5069979;28;20488;-82
2022/02/24 03:23:47;;;;;;;9.02;2.22;;;6.40;76.30;;;;;;5070819;28;20059;-83
2022/02/24 03:26:13;;;;;;;6.22;1.95;;;6.40;76.50;;;;;;5070101;28;20064;-82
2022/02/24 03:28:38;;;;;;;7.82;1.92;;;6.30;77.00;;;;;;5071619;28;20044;-82
2022/02/24 03:31:05;;;;;;;7.85;2.05;;;6.30;77.00;;;;;;5062169;28;20029;-82
2022/02/24 03:33:30;;;;;;;5.10;2.22;;;6.30;77.10;;;;;;5062971;28;20668;-82
2022/02/24 03:35:56;;;;;;;5.47;2.03;;;6.30;76.80;;;;;;5068593;28;20115;-82
2022/02/24 03:38:22;;;;;;;7.85;2.25;;;6.40;76.70;;;;;;5069609;28;20123;-82
2022/02/24 03:40:47;;;;;;;3.88;1.85;;;6.30;76.80;;;;;;5071930;28;20025;-82
2022/02/24 03:43:13;;;;;;;8.43;1.92;;;6.30;77.10;;;;;;5069230;28;20114;-82
2022/02/24 03:45:38;;;;;;;8.75;2.15;;;6.30;77.10;;;;;;5064926;28;20079;-82
2022/02/24 03:48:05;;;;;;;7.22;2.40;;;6.30;76.90;;;;;;5071029;28;20120;-82
2022/02/24 03:50:31;;;;;;;9.32;2.30;;;6.30;77.10;;;;;;5065106;28;20412;-82
2022/02/24 03:52:57;;;;;;;5.55;1.70;;;6.30;77.10;;;;;;5070774;28;20511;-82
2022/02/24 03:55:22;;;;;;;7.68;2.30;;;6.30;77.30;;;;;;5059847;28;20032;-82
2022/02/24 03:57:48;;;;;;;6.15;2.00;;;6.30;77.30;;;;;;5067975;28;20059;-82
2022/02/24 04:00:14;;;;;;;8.35;1.98;;;6.20;77.70;;;;;;5062811;28;20385;-82
2022/02/24 04:02:40;;;;;;;8.93;2.40;;;6.30;77.60;;;;;;5066981;28;20036;-82
2022/02/24 04:05:05;;;;;;;7.25;2.20;;;6.20;77.80;;;;;;5066716;28;20460;-82
2022/02/24 04:07:31;;;;;;;6.22;2.00;;;6.20;78.20;;;;;;5067243;28;20107;-82
2022/02/24 04:09:56;;;;;;;3.95;1.90;;;6.20;78.30;;;;;;5069805;28;20499;-82
2022/02/24 04:12:22;;;;;;;6.75;2.28;;;6.20;78.10;;;;;;5067677;28;20040;-82
2022/02/24 04:14:47;;;;;;;10.43;2.47;;;6.10;78.50;;;;;;5072226;28;20028;-82
2022/02/24 04:17:13;;;;;;;8.27;2.53;;;6.20;78.40;;;;;;5069565;28;20115;-82
2022/02/24 04:19:39;;;;;;;6.57;1.95;;;6.20;78.30;;;;;;5073096;28;20134;-82
2022/02/24 04:22:04;;;;;;;6.40;2.20;;;6.20;78.20;;;;;;5074728;28;20032;-82
2022/02/24 04:24:32;;;;;;;7.45;2.55;;;6.20;78.60;;;;;;5069747;28;20556;-82
2022/02/24 04:26:58;;;;;;;8.45;2.22;;;6.20;78.80;;;;;;5071230;28;20032;-82
2022/02/24 04:29:24;;;;;;;6.68;2.33;;;6.20;78.30;;;;;;5070850;28;20488;-82
2022/02/24 04:31:49;;;;;;;10.57;2.30;;;6.20;78.50;;;;;;5070741;28;20056;-82
2022/02/24 04:34:15;;;;;;;8.25;2.53;;;6.20;78.60;;;;;;5068027;28;20029;-82
2022/02/24 04:36:40;;;;;;;7.95;2.38;;;6.20;78.50;;;;;;5074484;28;20052;-82
2022/02/24 04:39:06;;;;;;;5.72;2.65;;;6.20;78.70;;;;;;5065548;28;20034;-82
2022/02/24 04:41:31;;;;;;;9.43;2.40;;;6.20;78.80;;;;;;5065686;28;20113;-82
2022/02/24 04:43:57;;;;;;;9.85;2.55;;;6.20;78.80;;;;;;5067819;28;20393;-82
2022/02/24 04:46:22;;;;;;;16.10;2.92;;;6.20;78.50;;;;;;5070404;28;20036;-82
2022/02/24 04:48:48;;;;;;;8.50;2.30;;;6.20;78.90;;;;;;5068926;28;20048;-82
2022/02/24 04:51:13;;;;;;;10.23;2.92;;;6.30;78.30;;;;;;5070035;28;20423;-81
2022/02/24 04:53:38;;;;;;;7.65;2.30;;;6.30;78.40;;;;;;5071423;28;20033;-82
2022/02/24 04:56:06;;;;;;;10.23;3.00;;;6.20;78.80;;;;;;5065314;28;20020;-82
2022/02/24 04:58:31;;;;;;;9.35;2.78;;;6.20;79.00;;;;;;5068700;28;20020;-82
2022/02/24 05:00:57;;;;;;;10.60;3.15;;;6.20;78.90;;;;;;5062941;28;20032;-82
2022/02/24 05:03:22;;;;;;;7.50;2.80;;;6.30;78.50;;;;;;5068925;28;20063;-82
2022/02/24 05:05:48;;;;;;;10.20;2.83;;;6.40;78.50;;;;;;5069040;28;20032;-82
2022/02/24 05:08:13;;;;;;;11.13;2.90;;;6.40;78.60;;;;;;5069442;28;20389;-82
2022/02/24 05:10:39;;;;;;;7.25;2.53;;;6.50;77.60;;;;;;5064093;28;20028;-82
2022/02/24 05:13:05;;;;;;;8.95;2.83;;;6.50;77.80;;;;;;5066991;28;20034;-82
2022/02/24 05:15:30;;;;;;;15.20;3.30;;;6.50;77.60;;;;;;5067559;28;20033;-82
2022/02/24 05:17:56;;;;;;;10.30;3.00;;;6.60;77.10;;;;;;5070783;28;20032;-82
2022/02/24 05:20:21;;;;;;;6.95;2.83;;;6.60;76.60;;;;;;5067214;28;20028;-82
2022/02/24 05:22:47;;;;;;;9.00;3.17;;;6.60;76.80;;;;;;5072133;28;20396;-83
2022/02/24 05:25:14;;;;;;;8.75;4.05;;;6.60;76.30;;;;;;5068576;28;20032;-82
2022/02/24 05:27:44;;;;;;;11.38;3.50;;;6.80;74.90;;;;;;5063409;28;20146;-82
2022/02/24 05:30:12;;;;;;;11.13;3.92;;;6.80;75.00;;;;;;5058910;28;20033;-82
2022/02/24 05:32:38;;;;;;;10.52;3.67;;;6.80;75.10;;;;;;5069687;28;20405;-82
2022/02/24 05:35:04;;;;;;;11.98;3.50;;;6.70;75.00;;;;;;5071062;28;20024;-81
2022/02/24 05:37:29;;;;;;;8.73;3.65;;;6.80;73.80;;;;;;5070094;28;20052;-82
2022/02/24 05:39:56;;;;;;;11.18;3.47;;;6.80;74.30;;;;;;5061945;28;20101;-82
2022/02/24 05:42:25;;;;;;;11.02;3.70;;;6.80;74.30;;;;;;5068761;28;20070;-81
2022/02/24 05:44:53;;;;;;;9.13;3.67;;;6.80;73.80;;;;;;5069146;28;20036;-82
2022/02/24 05:47:18;;;;;;;10.13;4.35;;;6.70;74.10;;;;;;5069248;28;20064;-82
2022/02/24 05:49:44;;;;;;;15.63;4.38;;;6.70;73.90;;;;;;5070178;28;20060;-82
2022/02/24 05:52:10;;;;;;;12.00;3.85;;;6.70;74.00;;;;;;5082705;28;20106;-82
2022/02/24 05:54:36;;;;;;;10.73;4.22;;;6.70;74.20;;;;;;5083161;28;20051;-83
2022/02/24 05:57:03;;;;;;;10.68;4.32;;;6.60;74.20;;;;;;5070200;28;20024;-83
2022/02/24 05:59:28;;;;;;;8.63;3.63;;;6.60;74.60;;;;;;5072199;28;20504;-84
2022/02/24 06:01:54;;;;;;;6.55;3.45;;;6.60;74.40;;;;;;5068649;28;20028;-83
2022/02/24 06:04:19;;;;;;;9.90;3.55;;;6.60;74.20;;;;;;5066001;28;20040;-83
2022/02/24 06:06:45;;;;;;;10.48;4.00;;;6.70;73.80;;;;;;5070302;28;20124;-83
2022/02/24 06:09:13;;;;;;;8.30;3.55;;;6.60;74.30;;;;;;5069342;28;20031;-83
2022/02/24 06:11:39;;;;;;;8.55;3.58;;;6.50;74.40;;;;;;5070374;28;20032;-83
2022/02/24 06:14:04;;;;;;;9.80;3.33;;;6.50;75.00;;;;;;5071873;28;20028;-83
2022/02/24 06:16:30;;;;;;;13.13;4.38;;;6.50;75.20;;;;;;5072525;28;20032;-84
2022/02/24 06:18:56;;;;;;;8.35;3.50;;;6.40;75.40;;;;;;5077607;28;20435;-84
2022/02/24 06:21:24;;;;;;;11.48;3.10;;;6.50;75.50;;;;;;5069926;28;20029;-83
2022/02/24 06:23:49;;;;;;;13.02;4.05;;;6.50;75.30;;;;;;5058223;28;20028;-82
2022/02/24 06:26:15;;;;;;;9.25;3.47;;;6.50;75.20;;;;;;5066430;28;20043;-84
2022/02/24 06:28:40;;;;;;;12.82;3.40;;;6.50;75.40;;;;;;5070666;28;20044;-83
2022/02/24 06:31:07;;;;;;;9.95;3.35;;;6.50;75.70;;;;;;5058922;28;20032;-83
2022/02/24 06:33:33;;;;;;;9.70;3.10;;;6.50;75.80;;;;;;5067934;28;20025;-83
2022/02/24 06:35:58;;;;;;;10.55;2.78;;;6.50;76.20;;;;;;5085094;28;20029;-83
2022/02/24 06:38:24;;;;;;;10.43;3.08;;;6.50;76.50;;;;;;5061515;28;20029;-83
2022/02/24 06:40:49;;;;;;;10.75;3.45;;;6.50;77.10;;;;;;5070563;28;20021;-83
2022/02/24 06:43:15;;;;;;;9.18;3.33;;;6.50;77.00;;;;;;5069883;28;20256;-83
2022/02/24 06:45:40;;;;;;;9.95;3.25;;;6.50;77.20;;;;;;5062824;28;20149;-84
2022/02/24 06:48:06;;;;;;;10.75;2.83;;;6.50;77.10;;;;;;5066348;28;20017;-83
2022/02/24 06:50:31;;;;;;;9.48;2.92;;;6.50;77.50;;;;;;5066127;28;20021;-83
2022/02/24 06:52:57;;;;;;;9.82;3.20;;;6.60;77.60;;;;;;5071427;28;20033;-86
2022/02/24 06:55:25;;;;;;;13.80;4.22;;;6.60;77.80;;;;;;5068386;28;20056;-83
2022/02/24 06:57:53;;;;;;;8.90;3.60;;;6.60;77.90;;;;;;5072296;28;20044;-86
2022/02/24 07:00:20;;;;;;;11.55;4.03;;;6.60;78.30;;;;;;5072085;28;20028;-85
2022/02/24 07:02:45;;;;;;;13.50;3.88;;;6.60;78.20;;;;;;5071710;28;20031;-83
2022/02/24 07:05:12;;;;;;;12.73;4.37;;;6.60;78.30;;;;;;5034593;28;1024918;-85
2022/02/24 07:07:37;;;;;;;9.60;4.13;;;6.60;77.80;;;;;;5065876;28;20305;-83
2022/02/24 07:10:08;;;;;;;7.57;4.15;;;6.60;77.30;;;;;;5060741;28;20845;-83
2022/02/24 07:12:39;;;;;;;10.85;4.28;;;6.70;77.20;;;;;;5057925;28;20032;-83
2022/02/24 07:15:06;;;;;;;14.45;4.63;;;6.70;77.30;;;;;;5071503;28;20082;-83
2022/02/24 07:17:31;;;;;;;12.63;4.88;;;6.70;77.10;;;;;;5066048;28;20032;-83
2022/02/24 07:19:58;;;;;;;11.32;4.50;;;6.80;76.60;;;;;;5067086;28;20385;-83
2022/02/24 07:22:23;;;;;;;12.25;3.97;;;6.80;76.70;;;;;;5087229;28;20131;-84
2022/02/24 07:24:49;;;;;;;13.50;4.50;;;6.80;77.00;;;;;;5070928;28;20170;-83
2022/02/24 07:27:14;;;;;;;10.88;4.25;;;6.80;76.20;;;;;;5080859;28;20050;-83
2022/02/24 07:29:40;;;;;;;15.13;4.43;;;6.80;76.20;;;;;;5076307;28;20057;-83
2022/02/24 07:32:06;;;;;;;12.32;4.70;;;6.90;76.50;;;;;;5057628;28;20036;-83
2022/02/24 07:34:32;;;;;;;10.68;4.05;;;6.90;76.20;;;;;;5068535;28;20048;-83
2022/02/24 07:36:58;;;;;;;16.00;4.20;;;6.90;76.50;;;;;;5069305;28;20033;-83
2022/02/24 07:39:23;;;;;;;13.25;4.00;;;6.90;76.50;;;;;;5071029;28;20768;-83
2022/02/24 07:41:49;;;;;;;13.55;4.20;;;6.90;76.50;;;;;;5070968;28;20474;-83
2022/02/24 07:44:14;;;;;;;10.32;3.97;;;6.90;76.40;;;;;;5070007;28;20026;-84
2022/02/24 07:46:40;;;;;;;17.40;4.35;;;6.90;76.70;;;;;;5071342;28;20122;-84
2022/02/24 07:49:08;;;;;;;8.25;3.47;;;7.00;75.70;;;;;;5071049;28;20028;-83
2022/02/24 07:51:34;;;;;;;13.93;3.50;;;7.00;76.10;;;;;;5064717;28;20067;-84
2022/02/24 07:53:59;;;;;;;10.45;3.40;;;7.00;76.40;;;;;;5071699;28;20029;-83
2022/02/24 07:56:25;;;;;;;15.25;4.18;;;7.00;76.00;;;;;;5051701;28;20116;-84
2022/02/24 07:58:51;;;;;;;10.10;3.58;;;7.00;76.60;;;;;;5070780;28;20027;-83
2022/02/24 08:01:17;;;;;;;13.98;3.65;;;7.00;76.40;;;;;;5081358;28;20032;-83
2022/02/24 08:03:43;;;;;;;10.90;3.85;;;7.00;76.10;;;;;;5066680;28;20412;-83
2022/02/24 08:06:08;;;;;;;14.48;3.30;;;7.10;76.40;;;;;;5066613;28;20447;-83
2022/02/24 08:08:34;;;;;;;11.95;3.80;;;7.10;77.10;;;;;;5071150;28;20020;-83
2022/02/24 08:11:00;;;;;;;13.70;3.30;;;7.00;77.40;;;;;;5069910;28;20093;-84
2022/02/24 08:13:27;;;;;;;12.10;3.30;;;7.00;77.70;;;;;;5071579;28;20036;-83
2022/02/24 08:15:53;;;;;;;10.63;3.42;;;7.00;78.00;;;;;;5070321;28;20075;-83
2022/02/24 08:18:18;;;;;;;9.85;3.33;;;7.00;78.20;;;;;;5070248;28;20056;-83
2022/02/24 08:20:44;;;;;;;15.05;3.92;;;7.00;78.40;;;;;;5068903;28;20032;-83
2022/02/24 08:23:10;;;;;;;9.65;3.15;;;7.00;78.60;;;;;;5069426;28;20020;-83
2022/02/24 08:25:36;;;;;;;14.45;3.30;;;7.00;78.70;;;;;;5057666;28;20540;-83
2022/02/24 08:28:01;;;;;;;10.90;3.45;;;7.10;78.00;;;;;;5068259;28;20406;-83
2022/02/24 08:30:27;;;;;;;9.75;2.92;;;7.10;77.30;;;;;;5069771;28;20028;-83
2022/02/24 08:32:53;;;;;;;8.88;3.10;;;7.10;77.00;;;;;;5070033;28;20115;-83
2022/02/24 08:35:25;;;;;;;12.05;3.05;;;7.20;77.50;;;;;;5073252;28;20036;-83
2022/02/24 08:37:51;;;;;;;12.20;2.80;;;7.30;77.70;;;;;;5069887;28;20048;-83
2022/02/24 08:40:19;;;;;;;8.75;3.50;;;7.30;76.90;;;;;;5069485;28;20040;-84
2022/02/24 08:42:45;;;;;;;8.95;3.00;;;7.40;77.40;;;;;;5071629;28;20117;-84
2022/02/24 08:45:13;;;;;;;8.98;2.80;;;7.40;77.10;;;;;;5068871;28;20032;-83
2022/02/24 08:47:40;;;;;;;11.88;2.80;;;7.40;76.50;;;;;;5069541;28;20028;-83
2022/02/24 08:50:08;;;;;;;9.45;2.38;;;7.50;76.90;;;;;;5068956;28;20067;-83
2022/02/24 08:52:34;;;;;;;7.85;2.85;;;7.50;76.80;;;;;;5069647;28;20587;-83
2022/02/24 08:54:59;;;;;;;9.07;2.65;;;7.60;76.90;;;;;;5065512;28;20107;-83
2022/02/24 08:57:25;;;;;;;8.52;2.88;;;7.60;76.70;;;;;;5065795;28;20495;-83
2022/02/24 08:59:51;;;;;;;9.77;2.85;;;7.70;76.40;;;;;;5062579;28;20028;-83
2022/02/24 09:02:17;;;;;;;7.53;2.38;;;7.70;76.90;;;;;;5070165;28;20025;-83
2022/02/24 09:04:45;;;;;;;7.70;2.72;;;7.70;76.30;;;;;;5068001;28;20063;-83
2022/02/24 09:07:11;;;;;;;12.88;3.08;;;7.60;76.80;;;;;;5068342;28;20032;-83
2022/02/24 09:09:36;;;;;;;16.85;3.13;;;7.60;77.10;;;;;;5070677;28;20090;-83
2022/02/24 09:12:02;;;;;;;12.57;3.28;;;7.50;77.20;;;;;;5066742;28;20071;-83
2022/02/24 09:14:29;;;;;;;12.40;2.92;;;7.60;77.80;;;;;;5070275;28;20020;-83
2022/02/24 09:16:55;;;;;;;9.00;3.00;;;7.60;77.80;;;;;;5061716;28;20029;-83
2022/02/24 09:19:20;;;;;;;12.60;2.83;;;7.60;77.00;;;;;;5064892;28;20039;-83
2022/02/24 09:21:46;;;;;;;8.93;2.88;;;7.50;76.90;;;;;;5065462;28;20036;-83
2022/02/24 09:24:12;;;;;;;8.55;2.70;;;7.60;76.80;;;;;;5065681;28;20033;-83
2022/02/24 09:26:38;;;;;;;9.57;3.17;;;7.60;76.20;;;;;;5057633;28;20033;-83
2022/02/24 09:29:04;;;;;;;12.30;2.53;;;7.70;76.60;;;;;;5064696;28;20037;-83
2022/02/24 09:31:30;;;;;;;10.73;2.78;;;7.70;76.30;;;;;;5059505;28;20028;-83
2022/02/24 09:33:56;;;;;;;10.77;2.47;;;7.80;76.40;;;;;;5068975;28;20376;-83
2022/02/24 09:36:21;;;;;;;14.15;3.00;;;7.80;76.40;;;;;;5060714;28;20024;-83
2022/02/24 09:38:47;;;;;;;12.05;3.22;;;7.90;75.90;;;;;;5068408;28;20029;-83
2022/02/24 09:41:14;;;;;;;12.25;2.60;;;8.00;75.80;;;;;;5069718;28;20024;-83
2022/02/24 09:43:39;;;;;;;10.43;3.10;;;8.10;75.90;;;;;;5069321;28;20477;-83
2022/02/24 09:46:07;;;;;;;12.95;2.72;;;8.20;75.70;;;;;;5057620;28;20025;-83
2022/02/24 09:48:36;;;;;;;11.48;3.08;;;8.30;74.90;;;;;;5069195;28;20454;-83
2022/02/24 09:51:08;;;;;;;11.38;2.72;;;8.40;74.60;;;;;;5066401;28;20285;-83
2022/02/24 09:53:34;;;;;;;10.68;3.08;;;8.50;74.00;;;;;;5081368;28;20116;-85
2022/02/24 09:56:01;;;;;;;10.80;2.97;;;8.50;73.90;;;;;;5069038;28;20021;-83
2022/02/24 09:58:27;;;;;;;14.27;3.47;;;8.50;74.60;;;;;;5070432;28;20380;-84
2022/02/24 10:00:54;;;;;;;12.10;2.97;;;8.70;74.80;;;;;;5066140;28;20017;-84
2022/02/24 10:03:40;;;;;;;9.68;3.15;;;8.70;73.30;;;;;;5055936;28;20021;-84
2022/02/24 10:06:08;;;;;;;9.90;2.90;;;8.70;73.70;;;;;;5059236;28;20036;-84
2022/02/24 10:08:42;;;;;;;11.32;2.75;;;8.80;74.00;;;;;;5069770;28;20024;-84
2022/02/24 10:11:25;;;;;;;12.05;2.70;;;8.70;73.60;;;;;;5068321;28;20032;-84
2022/02/24 10:14:00;;;;;;;14.73;3.50;;;9.00;74.20;;;;;;5067831;28;20024;-84
2022/02/24 10:16:28;;;;;;;10.13;2.85;;;9.00;73.40;;;;;;5066265;28;20031;-84
2022/02/24 10:18:55;;;;;;;7.85;2.90;;;8.90;71.70;;;;;;5069280;28;20103;-84
2022/02/24 10:21:21;;;;;;;8.73;3.20;;;8.80;72.20;;;;;;5067205;28;20062;-84
2022/02/24 10:23:48;;;;;;;10.10;2.65;;;8.70;72.80;;;;;;5067600;28;20089;-84
2022/02/24 10:26:16;;;;;;;11.05;3.22;;;8.80;72.70;;;;;;5067970;28;20115;-84
2022/02/24 10:28:45;;;;;;;11.07;2.92;;;8.70;73.00;;;;;;5068215;28;20028;-84
2022/02/24 10:31:16;;;;;;;9.13;2.83;;;8.80;73.70;;;;;;5068731;28;20036;-83
2022/02/24 10:34:04;;;;;;;11.70;2.47;;;8.60;72.60;;;;;;5063817;28;20028;-83
2022/02/24 10:36:33;;;;;;;7.53;3.15;;;8.60;73.50;;;;;;5060106;28;20032;-84
2022/02/24 10:39:09;;;;;;;11.60;2.90;;;8.80;73.40;;;;;;5069919;28;20028;-84
2022/02/24 10:41:36;;;;;;;11.70;3.25;;;9.10;72.70;;;;;;5070903;28;20114;-83
2022/02/24 10:44:23;;;;;;;11.10;3.22;;;9.30;72.00;;;;;;5071478;28;20032;-83
2022/02/24 10:47:04;;;;;;;11.13;3.15;;;9.30;70.70;;;;;;5069018;28;20060;-84
2022/02/24 10:49:34;;;;;;;11.90;3.15;;;9.30;70.40;;;;;;5083747;28;20028;-84
2022/02/24 10:52:20;;;;;;;10.25;3.13;;;9.80;69.60;;;;;;5075344;28;20117;-84
2022/02/24 10:55:00;;;;;;;14.20;3.15;;;9.90;68.40;;;;;;5069608;28;20082;-84
2022/02/24 10:57:27;;;;;;;10.48;3.05;;;10.00;69.40;;;;;;5056597;28;20024;-83
2022/02/24 10:59:54;;;;;;;10.68;3.15;;;9.80;68.80;;;;;;5075576;28;20608;-84
2022/02/24 11:02:20;;;;;;;8.48;3.15;;;10.00;68.80;;;;;;5068157;28;20530;-84
2022/02/24 11:04:46;;;;;;;8.75;2.90;;;9.80;68.70;;;;;;5077576;28;20053;-84
2022/02/24 11:07:11;;;;;;;12.10;3.60;;;9.60;69.30;;;;;;5073299;28;20101;-83
2022/02/24 11:09:40;;;;;;;11.15;3.15;;;9.50;70.20;;;;;;5087106;28;20029;-84
2022/02/24 11:12:08;;;;;;;10.15;3.90;;;9.40;71.30;;;;;;5069088;28;20546;-84
2022/02/24 11:14:34;;;;;;;10.20;3.38;;;9.30;70.70;;;;;;5070766;28;20032;-83
2022/02/24 11:17:04;;;;;;;12.02;3.30;;;9.30;71.40;;;;;;5065039;28;20445;-84
2022/02/24 11:19:31;;;;;;;10.30;3.78;;;9.10;71.40;;;;;;5066349;28;20093;-83
2022/02/24 11:21:56;;;;;;;12.48;3.35;;;9.10;72.40;;;;;;5063783;28;20043;-83
2022/02/24 11:24:22;;;;;;;8.48;3.60;;;9.10;72.60;;;;;;5072255;28;20025;-84
2022/02/24 11:27:19;;;;;;;10.77;4.00;;;9.20;72.90;;;;;;5072428;28;20036;-83
2022/02/24 11:29:56;;;;;;;10.68;3.50;;;9.10;72.00;;;;;;5078744;28;20038;-84
2022/02/24 11:32:23;;;;;;;12.10;3.65;;;9.10;70.90;;;;;;5071875;28;20111;-84
2022/02/24 11:35:06;;;;;;;16.15;3.92;;;9.20;71.60;;;;;;5067786;28;20063;-84
2022/02/24 11:37:41;;;;;;;8.52;3.42;;;9.10;71.80;;;;;;5068008;28;20451;-83
2022/02/24 11:40:27;;;;;;;17.20;4.53;;;9.10;71.70;;;;;;5060253;28;20471;-84
2022/02/24 11:43:21;;;;;;;11.02;3.92;;;9.20;72.90;;;;;;5069612;28;20024;-83
2022/02/24 11:45:51;;;;;;;14.55;3.78;;;9.30;73.20;;;;;;5065834;28;20028;-84
2022/02/24 11:48:34;;;;;;;8.25;3.13;;;9.20;73.50;;;;;;5066695;28;20428;-84
2022/02/24 11:51:03;;;;;;;14.30;4.07;;;9.00;72.90;;;;;;5070511;28;20146;-83
2022/02/24 11:53:30;;;;;;;13.95;3.83;;;8.90;73.10;;;;;;5068954;28;20016;-83
2022/02/24 11:55:56;;;;;;;9.88;3.70;;;8.90;74.10;;;;;;5064724;28;20024;-83
2022/02/24 11:58:38;;;;;;;10.88;3.78;;;8.90;73.80;;;;;;5064464;28;20540;-83
2022/02/24 12:01:14;;;;;;;9.27;3.28;;;8.70;73.60;;;;;;5069275;28;20166;-84
2022/02/24 12:03:46;;;;;;;8.65;3.33;;;8.90;74.10;;;;;;5071452;28;20020;-84
2022/02/24 12:06:16;;;;;;;7.60;3.80;;;9.00;73.80;;;;;;5066933;28;20060;-84
2022/02/24 12:09:08;;;;;;;7.20;3.60;;;9.30;72.50;;;;;;5071051;28;20111;-83
2022/02/24 12:11:39;;;;;;;10.13;3.33;;;9.70;72.10;;;;;;5068531;28;20042;-84
2022/02/24 12:14:28;;;;;;;7.15;3.28;;;9.60;71.00;;;;;;5077903;28;20883;-83
2022/02/24 12:17:05;;;;;;;9.73;3.47;;;9.50;71.50;;;;;;5070409;28;20037;-84
2022/02/24 12:19:45;;;;;;;10.95;3.22;;;9.40;71.30;;;;;;5066343;28;20025;-83
2022/02/24 12:22:40;;;;;;;9.90;3.17;;;9.60;71.60;;;;;;5061642;28;20435;-84
2022/02/24 12:25:14;;;;;;;9.30;2.63;;;9.60;70.50;;;;;;5075652;28;20117;-84
2022/02/24 12:27:48;;;;;;;9.13;3.13;;;9.80;69.30;;;;;;5069894;28;20028;-84
2022/02/24 12:30:26;;;;;;;6.32;2.75;;;10.40;68.90;;;;;;5070267;28;20476;-84
2022/02/24 12:33:08;;;;;;;7.95;2.50;;;10.20;67.80;;;;;;5070978;28;20115;-83
2022/02/24 12:35:46;;;;;;;5.50;2.60;;;10.00;69.50;;;;;;5059659;28;20062;-84
2022/02/24 12:38:14;;;;;;;8.50;3.17;;;10.30;69.10;;;;;;5065188;28;20069;-83
2022/02/24 12:40:44;;;;;;;6.97;2.42;;;10.60;68.00;;;;;;5067935;28;20039;-84
2022/02/24 12:43:15;;;;;;;8.70;2.90;;;11.10;67.40;;;;;;5071020;28;20392;-84
2022/02/24 12:45:42;;;;;;;9.10;3.30;;;11.10;65.30;;;;;;5069401;28;20523;-84
2022/02/24 12:48:10;;;;;;;10.40;2.70;;;11.10;66.00;;;;;;5063831;28;20051;-84
2022/02/24 12:50:42;;;;;;;6.57;2.40;;;11.50;64.80;;;;;;5070355;28;20036;-84
2022/02/24 12:53:17;;;;;;;8.07;2.42;;;11.50;64.50;;;;;;5061587;28;20312;-84
2022/02/24 12:55:45;;;;;;;8.75;2.97;;;11.20;63.70;;;;;;5066504;28;20567;-84